createdAt,value
2023-01-11T00:04:40.440Z,7.92
2023-01-11T00:09:41.792Z,7.86
2023-01-11T00:14:43.248Z,7.87
2023-01-11T00:19:44.581Z,7.97
2023-01-11T00:24:45.950Z,8.00
2023-01-11T00:29:47.714Z,7.97
2023-01-11T00:34:49.071Z,8.05
2023-01-11T00:39:51.433Z,8.07
2023-01-11T00:45:11.539Z,8.10
2023-01-11T00:50:12.879Z,8.17
2023-01-11T00:55:14.330Z,8.25
2023-01-11T01:00:15.900Z,8.31
2023-01-11T01:05:18.156Z,8.33
2023-01-11T01:10:20.310Z,8.36
2023-01-11T01:15:22.020Z,8.43
2023-01-11T01:20:24.414Z,8.42
2023-01-11T01:25:25.735Z,8.38
2023-01-11T01:30:27.102Z,8.44
2023-01-11T01:35:28.462Z,8.34
2023-01-11T01:40:30.066Z,8.37
2023-01-11T01:45:31.403Z,8.37
2023-01-11T01:50:57.033Z,8.33
2023-01-11T01:56:01.480Z,8.29
2023-01-11T02:01:23.368Z,8.35
2023-01-11T02:06:25.259Z,8.37
2023-01-11T02:11:30.223Z,8.40
2023-01-11T02:16:31.812Z,8.40
2023-01-11T02:22:04.184Z,8.33
2023-01-11T02:27:33.589Z,8.44
2023-01-11T02:32:46.998Z,8.42
2023-01-11T02:38:33.536Z,8.44
2023-01-11T02:44:13.049Z,8.55
2023-01-11T02:49:36.773Z,8.56
2023-01-11T02:54:43.026Z,8.44
2023-01-11T02:59:48.962Z,8.44
2023-01-11T03:04:50.406Z,8.45
2023-01-11T03:09:57.523Z,8.42
2023-01-11T03:15:07.883Z,8.47
2023-01-11T03:20:35.110Z,8.52
2023-01-11T03:25:51.015Z,8.62
2023-01-11T03:31:02.349Z,8.62
2023-01-11T03:36:22.394Z,8.61
2023-01-11T03:41:27.478Z,8.59
2023-01-11T03:46:38.811Z,8.62
2023-01-11T03:51:45.717Z,8.62
2023-01-11T03:57:02.110Z,8.73
2023-01-11T04:02:03.666Z,8.81
2023-01-11T04:07:04.984Z,8.89
2023-01-11T04:12:06.541Z,8.99
2023-01-11T04:17:07.894Z,8.97
2023-01-11T04:22:09.252Z,8.93
2023-01-11T04:27:10.575Z,9.00
2023-01-11T04:32:11.901Z,9.00
2023-01-11T04:37:13.235Z,9.03
2023-01-11T04:42:20.234Z,9.01
2023-01-11T04:47:23.291Z,9.06
2023-01-11T04:52:24.608Z,9.19
2023-01-11T04:57:26.290Z,9.19
2023-01-11T05:02:27.611Z,9.19
2023-01-11T05:07:28.948Z,9.21
2023-01-11T05:12:30.270Z,9.26
2023-01-11T05:17:31.572Z,9.30
2023-01-11T05:22:32.930Z,9.35
2023-01-11T05:27:34.239Z,9.44
2023-01-11T05:32:35.544Z,9.52
2023-01-11T05:37:38.247Z,9.56
2023-01-11T05:42:39.580Z,9.58
2023-01-11T05:47:40.924Z,9.59
2023-01-11T05:52:42.244Z,9.73
2023-01-11T05:57:44.764Z,9.72
2023-01-11T06:02:46.299Z,9.76
2023-01-11T06:07:47.640Z,9.76
2023-01-11T06:13:12.457Z,9.79
2023-01-11T06:18:14.025Z,9.77
2023-01-11T06:23:15.390Z,9.75
2023-01-11T06:28:17.379Z,9.71
2023-01-11T06:33:19.188Z,9.75
2023-01-11T06:38:22.431Z,9.72
2023-01-11T06:43:25.029Z,9.70
2023-01-11T06:48:27.120Z,9.67
2023-01-11T06:53:29.346Z,9.59
2023-01-11T06:58:30.828Z,9.57
2023-01-11T07:03:32.545Z,9.56
2023-01-11T07:08:33.960Z,9.55
2023-01-11T07:13:35.573Z,9.52
2023-01-11T07:18:37.254Z,9.56
2023-01-11T07:23:38.583Z,9.60
2023-01-11T07:28:39.942Z,9.58
2023-01-11T07:33:41.240Z,9.61
2023-01-11T07:38:42.574Z,9.71
2023-01-11T07:43:43.897Z,9.78
2023-01-11T07:48:45.207Z,9.75
2023-01-11T07:53:46.947Z,9.78
2023-01-11T07:58:48.282Z,9.71
2023-01-11T08:03:50.116Z,9.75
2023-01-11T08:08:51.459Z,9.70
2023-01-11T08:14:11.235Z,9.78
2023-01-11T08:19:12.629Z,9.87
2023-01-11T08:24:14.164Z,9.90
2023-01-11T08:29:15.510Z,9.85
2023-01-11T08:34:16.927Z,9.82
2023-01-11T08:39:18.290Z,9.88
2023-01-11T08:44:33.384Z,9.96
2023-01-11T08:49:35.626Z,10.04
2023-01-11T08:54:37.001Z,10.05
2023-01-11T08:59:38.360Z,10.03
2023-01-11T09:04:39.847Z,10.12
2023-01-11T09:09:41.242Z,10.10
2023-01-11T09:14:42.794Z,10.15
2023-01-11T09:19:44.139Z,10.18
2023-01-11T09:24:45.453Z,10.22
2023-01-11T09:29:46.802Z,10.27
2023-01-11T09:34:49.619Z,10.26
2023-01-11T09:39:52.465Z,10.33
2023-01-11T09:44:57.235Z,10.30
2023-01-11T09:50:02.217Z,10.39
2023-01-11T09:55:04.568Z,10.42
2023-01-11T10:00:35.159Z,10.37
2023-01-11T10:05:51.370Z,10.37
2023-01-11T10:18:29.556Z,10.47
2023-01-11T10:22:43.974Z,10.49
2023-01-11T10:28:01.566Z,10.56
2023-01-11T10:33:25.326Z,10.51
2023-01-11T10:39:03.247Z,10.59
2023-01-11T10:44:18.880Z,10.59
2023-01-11T10:49:43.983Z,10.68
2023-01-11T10:54:51.099Z,10.68
2023-01-11T11:00:05.242Z,10.71
2023-01-11T11:05:19.843Z,10.69
2023-01-11T11:10:50.116Z,10.73
2023-01-11T11:16:16.267Z,10.74
2023-01-11T11:21:31.646Z,10.80
2023-01-11T11:26:39.407Z,10.93
2023-01-11T11:31:46.932Z,11.00
2023-01-11T11:36:49.515Z,11.07
2023-01-11T11:41:53.195Z,11.09
2023-01-11T11:47:02.048Z,11.14
2023-01-11T11:52:05.375Z,11.18
2023-01-11T11:57:22.140Z,11.18
2023-01-11T12:02:28.156Z,11.32
2023-01-11T12:07:49.893Z,11.41
2023-01-11T12:12:58.074Z,11.44
2023-01-11T12:18:28.114Z,11.42
2023-01-11T12:23:29.457Z,11.55
2023-01-11T12:28:53.129Z,11.54
2023-01-11T12:34:13.146Z,11.68
2023-01-11T12:39:21.412Z,11.71
2023-01-11T12:45:07.474Z,11.74
2023-01-11T12:50:22.340Z,11.83
2023-01-11T12:55:41.913Z,11.93
2023-01-11T13:00:55.370Z,12.00
2023-01-11T13:06:23.980Z,12.04
2023-01-11T13:11:37.496Z,12.05
2023-01-11T13:16:51.933Z,12.07
2023-01-11T13:21:55.900Z,12.17
2023-01-11T13:27:11.890Z,12.23
2023-01-11T13:32:18.172Z,12.39
2023-01-11T13:37:42.987Z,12.43
2023-01-11T13:42:50.518Z,12.46
2023-01-11T13:47:56.205Z,12.45
2023-01-11T13:53:28.276Z,12.48
2023-01-11T13:58:42.228Z,12.54
2023-01-11T14:03:55.517Z,12.40
2023-01-11T14:09:10.948Z,12.28
2023-01-11T14:14:27.055Z,12.23
2023-01-11T14:19:40.323Z,12.18
2023-01-11T14:25:07.919Z,12.20
2023-01-11T14:30:38.698Z,12.20
2023-01-11T14:35:58.835Z,12.17
2023-01-11T14:41:25.498Z,12.16
2023-01-11T14:46:46.512Z,12.13
2023-01-11T14:52:07.752Z,12.06
2023-01-11T14:57:36.457Z,11.89
2023-01-11T15:02:37.958Z,11.76
2023-01-11T15:07:41.821Z,11.67
2023-01-11T15:12:43.159Z,11.48
2023-01-11T15:18:04.175Z,11.48
2023-01-11T15:23:05.927Z,11.44
2023-01-11T15:28:42.315Z,11.45
2023-01-11T15:33:48.737Z,11.41
2023-01-11T15:39:07.172Z,11.48
2023-01-11T15:44:48.277Z,11.43
2023-01-11T15:50:10.999Z,11.35
2023-01-11T15:55:49.287Z,11.39
2023-01-11T16:01:09.502Z,11.40
2023-01-11T16:06:20.085Z,11.34
2023-01-11T16:11:54.292Z,11.26
2023-01-11T16:16:56.422Z,11.22
2023-01-11T16:22:01.750Z,11.17
2023-01-11T16:27:04.246Z,11.15
2023-01-11T16:32:08.071Z,11.13
2023-01-11T16:37:22.826Z,11.05
2023-01-11T16:42:29.197Z,10.95
2023-01-11T16:47:30.521Z,10.91
2023-01-11T16:52:37.594Z,10.84
2023-01-11T16:57:44.025Z,10.73
2023-01-11T17:02:48.792Z,10.71
2023-01-11T17:07:50.253Z,10.61
2023-01-11T17:13:34.727Z,10.47
2023-01-11T17:18:40.798Z,10.44
2023-01-11T17:23:43.993Z,10.32
2023-01-11T17:28:47.515Z,10.17
2023-01-11T17:33:59.089Z,10.04
2023-01-11T17:39:01.737Z,9.99
2023-01-11T17:44:22.005Z,9.98
2023-01-11T17:49:25.554Z,9.95
2023-01-11T17:54:27.642Z,9.91
2023-01-11T17:59:30.295Z,9.91
2023-01-11T18:04:32.074Z,9.92
2023-01-11T18:09:37.739Z,9.91
2023-01-11T18:14:46.467Z,9.89
2023-01-11T18:19:47.826Z,9.88
2023-01-11T18:24:53.530Z,9.85
2023-01-11T18:29:57.108Z,9.76
2023-01-11T18:34:58.983Z,9.76
2023-01-11T18:40:01.265Z,9.68
2023-01-11T18:45:02.801Z,9.62
2023-01-11T18:50:04.764Z,9.60
2023-01-11T18:55:06.887Z,9.56
2023-01-11T19:00:10.428Z,9.52
2023-01-11T19:05:13.245Z,9.50
2023-01-11T19:10:19.342Z,9.45
2023-01-11T19:15:20.694Z,9.43
2023-01-11T19:20:22.010Z,9.37
2023-01-11T19:25:23.450Z,9.30
2023-01-11T19:30:24.823Z,9.28
2023-01-11T19:35:26.212Z,9.30
2023-01-11T19:40:27.541Z,9.27
2023-01-11T19:45:28.849Z,9.29
2023-01-11T19:50:30.251Z,9.23
2023-01-11T19:55:31.559Z,9.22
2023-01-11T20:00:32.893Z,9.21
2023-01-11T20:05:34.665Z,9.23
2023-01-11T20:10:35.999Z,9.19
2023-01-11T20:15:38.563Z,9.19
2023-01-11T20:20:39.949Z,9.17
2023-01-11T20:25:41.414Z,9.11
2023-01-11T20:30:43.467Z,9.08
2023-01-11T20:35:45.526Z,9.09
2023-01-11T20:40:46.871Z,9.07
2023-01-11T20:45:56.194Z,9.03
2023-01-11T20:51:00.960Z,9.03
2023-01-11T20:56:05.376Z,8.96
2023-01-11T21:01:08.792Z,8.91
2023-01-11T21:06:10.530Z,8.83
2023-01-11T21:11:15.799Z,8.79
2023-01-11T21:16:17.187Z,8.79
2023-01-11T21:21:19.266Z,8.78
2023-01-11T21:26:20.683Z,8.76
2023-01-11T21:31:22.854Z,8.77
2023-01-11T21:36:26.276Z,8.82
2023-01-11T21:41:48.562Z,8.79
2023-01-11T21:46:50.280Z,8.76
2023-01-11T21:51:52.440Z,8.75
2023-01-11T21:56:53.791Z,8.77
2023-01-11T22:01:55.250Z,8.76
2023-01-11T22:06:58.029Z,8.84
2023-01-11T22:12:00.567Z,8.95
2023-01-11T22:17:04.444Z,9.09
2023-01-11T22:22:06.342Z,9.12
2023-01-11T22:27:07.701Z,9.09
2023-01-11T22:32:09.520Z,9.06
2023-01-11T22:37:11.007Z,9.06
2023-01-11T22:42:12.342Z,8.97
2023-01-11T22:47:13.699Z,8.94
2023-01-11T22:52:15.075Z,8.93
2023-01-11T22:57:16.424Z,8.95
2023-01-11T23:02:17.831Z,8.99
2023-01-11T23:07:19.528Z,8.95
2023-01-11T23:12:39.482Z,8.98
2023-01-11T23:17:40.782Z,9.07
2023-01-11T23:22:42.204Z,9.11
2023-01-11T23:27:43.536Z,9.11
2023-01-11T23:32:45.060Z,9.23
2023-01-11T23:37:46.394Z,9.34
2023-01-11T23:42:47.747Z,9.42
2023-01-11T23:47:49.142Z,9.51
2023-01-11T23:52:50.487Z,9.63
2023-01-11T23:58:08.926Z,9.73
